Time;durP1;ratioP1;P1;durP2;ratioP2;P2;SDS_P1;SDS_P2;PMS_P1;PMS_P2;Temp;Humidity;BMP_temperature;BMP_pressure;BME280_temperature;BME280_humidity;BME280_pressure;Samples;Min_cycle;Max_cycle;Signal;HPM_P1;HPM_P2
2023/01/08 00:01:13;;;;;;;4.77;3.63;;;;;;;6.92;65.76;95239.28;5095599;28;20199;-84
2023/01/08 00:03:41;;;;;;;4.13;3.70;;;;;;;7.01;65.90;95229.81;5081018;28;20208;-84
2023/01/08 00:06:10;;;;;;;5.53;3.60;;;;;;;6.98;65.86;95223.25;5074724;28;20201;-84
2023/01/08 00:08:38;;;;;;;4.57;3.80;;;;;;;6.95;66.14;95221.00;5091035;28;20203;-84
2023/01/08 00:11:05;;;;;;;4.07;3.67;;;;;;;6.90;66.31;95211.28;5091792;28;20601;-84
2023/01/08 00:13:31;;;;;;;4.20;3.80;;;;;;;6.96;66.62;95203.88;5089452;28;20219;-84
2023/01/08 00:16:02;;;;;;;4.27;3.87;;;;;;;6.99;66.65;95201.00;5095404;28;20207;-84
2023/01/08 00:18:31;;;;;;;3.80;3.43;;;;;;;7.03;66.44;95195.41;5082028;28;20228;-84
2023/01/08 00:20:58;;;;;;;5.90;3.40;;;;;;;7.11;66.01;95192.84;5075644;28;20200;-84
2023/01/08 00:23:24;;;;;;;4.23;3.43;;;;;;;7.05;66.88;95192.69;5087690;28;20216;-84
2023/01/08 00:25:53;;;;;;;9.07;6.77;;;;;;;6.89;66.65;95184.09;5085744;28;20200;-84
2023/01/08 00:28:19;;;;;;;11.93;9.17;;;;;;;6.86;66.61;95181.06;5085933;28;20203;-84
2023/01/08 00:30:47;;;;;;;6.00;3.60;;;;;;;6.77;66.12;95175.16;5095774;28;20570;-84
2023/01/08 00:33:14;;;;;;;3.50;2.80;;;;;;;6.88;65.71;95168.91;5085010;28;20612;-84
2023/01/08 00:35:41;;;;;;;3.30;3.00;;;;;;;6.87;64.64;95165.53;5079458;28;20200;-83
2023/01/08 00:38:07;;;;;;;2.93;2.50;;;;;;;6.97;63.99;95167.09;5087565;28;20215;-84
2023/01/08 00:40:35;;;;;;;3.40;2.53;;;;;;;7.04;63.73;95166.28;5099184;28;20200;-84
2023/01/08 00:43:03;;;;;;;2.93;2.30;;;;;;;7.05;62.95;95167.88;5086066;28;20270;-84
2023/01/08 00:45:30;;;;;;;2.50;2.27;;;;;;;7.06;62.55;95161.00;5087179;28;20318;-84
2023/01/08 00:47:57;;;;;;;2.80;2.50;;;;;;;6.99;62.50;95152.38;5084530;28;20207;-84
2023/01/08 00:50:23;;;;;;;3.37;2.63;;;;;;;6.96;62.36;95148.38;5088976;28;20193;-84
2023/01/08 00:52:50;;;;;;;3.77;3.13;;;;;;;6.99;62.30;95140.38;5067870;28;20628;-84
2023/01/08 00:55:16;;;;;;;3.50;2.80;;;;;;;7.12;62.78;95150.13;5098570;28;20196;-84
2023/01/08 00:57:43;;;;;;;5.20;2.60;;;;;;;7.17;61.85;95148.63;5089032;28;20236;-84
2023/01/08 01:00:14;;;;;;;4.20;2.93;;;;;;;7.23;61.61;95155.66;5098834;28;20207;-84
2023/01/08 01:02:41;;;;;;;4.03;2.80;;;;;;;7.28;61.64;95150.84;5091231;28;20219;-84
2023/01/08 01:05:09;;;;;;;3.73;2.90;;;;;;;7.27;61.53;95153.56;5078055;28;20275;-84
2023/01/08 01:07:36;;;;;;;2.70;2.40;;;;;;;7.23;61.29;95158.22;5078335;28;20254;-84
2023/01/08 01:10:03;;;;;;;4.10;2.60;;;;;;;7.22;61.57;95160.94;5078178;28;20643;-84
2023/01/08 01:12:30;;;;;;;2.97;2.43;;;;;;;7.21;60.78;95170.38;5087967;28;20587;-84
2023/01/08 01:14:56;;;;;;;3.17;2.70;;;;;;;7.17;61.26;95171.69;5089143;28;20661;-84
2023/01/08 01:17:24;;;;;;;4.00;2.57;;;;;;;7.15;61.37;95170.25;5077785;28;20224;-84
2023/01/08 01:19:51;;;;;;;3.80;2.67;;;;;;;7.04;61.66;95173.16;5083577;28;20249;-84
2023/01/08 01:22:17;;;;;;;2.37;2.17;;;;;;;6.97;61.42;95172.22;5097528;28;20216;-84
2023/01/08 01:24:44;;;;;;;3.07;2.13;;;;;;;6.94;61.94;95174.13;5082920;28;20247;-84
2023/01/08 01:27:10;;;;;;;2.60;2.03;;;;;;;6.84;62.20;95176.09;5077104;28;20209;-84
2023/01/08 01:29:37;;;;;;;3.33;2.37;;;;;;;6.80;62.35;95172.25;5089782;28;20204;-84
2023/01/08 01:32:04;;;;;;;3.27;2.33;;;;;;;6.84;62.36;95175.31;5097107;28;20200;-84
2023/01/08 01:34:32;;;;;;;2.60;2.40;;;;;;;6.83;61.79;95164.25;5096148;28;20192;-84
2023/01/08 01:36:59;;;;;;;2.53;2.33;;;;;;;6.76;63.00;95157.41;5096766;28;20577;-84
2023/01/08 01:39:25;;;;;;;2.73;2.50;;;;;;;6.75;62.65;95153.25;5087247;28;20219;-84
2023/01/08 01:41:52;;;;;;;2.73;2.40;;;;;;;6.70;63.12;95163.97;5074754;28;20205;-84
2023/01/08 01:44:37;;;;;;;2.90;2.60;;;;;;;6.71;63.79;95175.81;5084937;28;20246;-84
2023/01/08 01:47:09;;;;;;;2.60;2.40;;;;;;;6.73;63.58;95179.00;5093215;28;20758;-83
2023/01/08 01:49:39;;;;;;;2.70;2.50;;;;;;;6.71;63.83;95172.47;5056869;28;20217;-84
2023/01/08 01:52:07;;;;;;;4.97;2.70;;;;;;;6.73;63.85;95162.88;5076147;28;20200;-84
2023/01/08 01:54:35;;;;;;;2.57;2.37;;;;;;;6.65;64.25;95156.00;5096270;28;20695;-84
2023/01/08 01:57:04;;;;;;;3.10;2.50;;;;;;;6.50;64.46;95139.72;5087457;28;20197;-85
2023/01/08 01:59:31;;;;;;;2.97;2.67;;;;;;;6.45;64.71;95139.41;5075961;28;20217;-84
2023/01/08 02:01:58;;;;;;;3.10;2.80;;;;;;;6.35;64.97;95139.56;5077340;28;20216;-84
2023/01/08 02:04:24;;;;;;;3.60;2.70;;;;;;;6.43;64.58;95133.66;5076710;28;20250;-84
2023/01/08 02:07:01;;;;;;;2.50;2.30;;;;;;;6.52;64.59;95132.69;5082638;28;20650;-84
2023/01/08 02:09:35;;;;;;;3.60;2.60;;;;;;;6.52;64.54;95140.34;5094724;28;20249;-83
2023/01/08 02:12:16;;;;;;;2.47;2.00;;;;;;;6.54;64.47;95139.22;5096271;28;20290;-84
2023/01/08 02:15:00;;;;;;;2.70;2.33;;;;;;;6.48;64.56;95132.22;5084974;28;20197;-84
2023/01/08 02:17:34;;;;;;;2.43;2.23;;;;;;;6.51;64.55;95120.84;5055950;28;20621;-84
2023/01/08 02:20:06;;;;;;;2.60;2.40;;;;;;;6.33;64.87;95123.59;5081078;28;20222;-84
2023/01/08 02:23:14;;;;;;;2.57;2.33;;;;;;;6.26;65.22;95119.28;5078961;28;20274;-84
2023/01/08 02:26:06;;;;;;;2.77;2.30;;;;;;;6.35;64.59;95113.22;4993407;28;20195;-84
2023/01/08 02:28:36;;;;;;;2.60;2.17;;;;;;;6.28;64.90;95110.50;4992652;28;20196;-84
2023/01/08 02:31:02;;;;;;;2.20;2.00;;;;;;;6.30;64.92;95100.13;5032732;28;20209;-84
2023/01/08 02:33:29;;;;;;;2.47;2.20;;;;;;;6.35;64.54;95096.09;5071226;28;20217;-83
2023/01/08 02:36:18;;;;;;;2.27;2.07;;;;;;;6.42;64.35;95091.94;5096089;28;20317;-84
2023/01/08 02:38:53;;;;;;;3.07;2.20;;;;;;;6.44;63.97;95091.78;5073953;28;20224;-84
2023/01/08 02:41:24;;;;;;;2.20;2.00;;;;;;;6.37;64.03;95090.81;5067779;28;20230;-84
2023/01/08 02:43:54;;;;;;;2.73;2.37;;;;;;;6.41;64.17;95097.22;5078950;28;20277;-84
2023/01/08 02:46:26;;;;;;;2.40;2.20;;;;;;;6.44;63.87;95097.69;5095758;28;20196;-84
2023/01/08 02:48:56;;;;;;;2.30;2.10;;;;;;;6.45;63.22;95098.50;5092276;28;20199;-83
2023/01/08 02:51:28;;;;;;;2.10;1.80;;;;;;;6.43;63.22;95092.72;5063925;28;20789;-84
2023/01/08 02:53:59;;;;;;;2.20;2.00;;;;;;;6.48;63.17;95098.16;5060265;28;20235;-84
2023/01/08 02:56:30;;;;;;;2.10;1.90;;;;;;;6.46;63.00;95095.78;5084454;28;20197;-84
2023/01/08 02:58:59;;;;;;;3.00;2.10;;;;;;;6.49;63.05;95086.97;5074892;28;20278;-84
2023/01/08 03:01:28;;;;;;;2.73;1.80;;;;;;;6.51;62.47;95092.72;5075028;28;20196;-84
2023/01/08 03:03:58;;;;;;;2.20;2.00;;;;;;;6.54;62.60;95087.28;5086828;28;20308;-84
2023/01/08 03:06:27;;;;;;;1.97;1.77;;;;;;;6.54;62.32;95082.94;5074625;28;20219;-84
2023/01/08 03:08:54;;;;;;;1.93;1.73;;;;;;;6.56;62.28;95082.78;5092466;28;20775;-84
2023/01/08 03:11:23;;;;;;;2.13;1.93;;;;;;;6.57;62.11;95087.75;5095804;28;20256;-83
2023/01/08 03:13:57;;;;;;;2.37;2.10;;;;;;;6.52;62.56;95078.97;5077773;28;20265;-84
2023/01/08 03:16:29;;;;;;;2.20;2.00;;;;;;;6.58;62.45;95079.09;5074552;28;20196;-84
2023/01/08 03:18:59;;;;;;;2.10;1.90;;;;;;;6.59;62.03;95067.91;5074238;28;20224;-84
2023/01/08 03:21:27;;;;;;;2.10;1.90;;;;;;;6.51;62.10;95059.47;5071748;28;20630;-84
2023/01/08 03:23:53;;;;;;;2.63;2.13;;;;;;;6.42;62.05;95057.91;5073859;28;20216;-84
2023/01/08 03:26:24;;;;;;;2.10;1.90;;;;;;;6.34;62.04;95056.19;5075231;28;20626;-84
2023/01/08 03:28:54;;;;;;;2.40;2.20;;;;;;;6.26;62.51;95052.81;5074090;28;20193;-84
2023/01/08 03:31:24;;;;;;;3.70;2.20;;;;;;;6.26;62.34;95053.63;5074431;28;20192;-83
2023/01/08 03:33:51;;;;;;;3.10;2.33;;;;;;;6.32;62.58;95054.75;5073268;28;20244;-84
2023/01/08 03:36:21;;;;;;;3.10;2.30;;;;;;;6.42;62.37;95047.66;5073827;28;20197;-83
2023/01/08 03:38:52;;;;;;;2.60;2.23;;;;;;;6.41;61.66;95046.06;5075093;28;20232;-84
2023/01/08 03:41:20;;;;;;;2.40;2.20;;;;;;;6.39;61.82;95048.00;5083149;28;20197;-83
2023/01/08 03:43:47;;;;;;;2.40;2.20;;;;;;;6.41;61.42;95049.44;5074993;28;20225;-84
2023/01/08 03:46:21;;;;;;;2.30;2.10;;;;;;;6.42;61.71;95045.13;5053369;28;20778;-84
2023/01/08 03:48:50;;;;;;;3.60;2.60;;;;;;;6.38;61.88;95034.41;5091116;28;20191;-84
2023/01/08 03:51:17;;;;;;;2.30;2.00;;;;;;;6.40;61.64;95034.25;5084438;28;20228;-84
2023/01/08 03:53:44;;;;;;;2.53;2.20;;;;;;;6.41;61.20;95033.28;5091432;28;20227;-84
2023/01/08 03:56:10;;;;;;;3.13;2.07;;;;;;;6.36;61.08;95023.53;5093623;28;20290;-84
2023/01/08 03:58:36;;;;;;;2.20;2.00;;;;;;;6.37;61.17;95017.47;5076354;28;20224;-84
2023/01/08 04:01:03;;;;;;;2.63;2.17;;;;;;;6.40;61.13;95012.03;5073771;28;20212;-84
2023/01/08 04:03:30;;;;;;;2.50;2.20;;;;;;;6.41;61.17;95007.72;5085674;28;20220;-84
2023/01/08 04:05:59;;;;;;;3.27;1.87;;;;;;;6.42;61.34;95015.22;5073819;28;20205;-84
2023/01/08 04:08:25;;;;;;;2.10;2.00;;;;;;;6.36;60.66;95007.41;5085924;28;20188;-84
2023/01/08 04:10:52;;;;;;;2.10;1.80;;;;;;;6.34;61.11;95010.16;5093259;28;20219;-84
2023/01/08 04:13:18;;;;;;;2.50;2.10;;;;;;;6.22;61.41;95004.59;5080940;28;20225;-84
2023/01/08 04:15:47;;;;;;;2.17;1.97;;;;;;;6.17;61.28;95006.81;5073379;28;20197;-84
2023/01/08 04:18:14;;;;;;;2.33;1.93;;;;;;;6.23;61.15;95007.94;5083955;28;20207;-84
2023/01/08 04:20:45;;;;;;;3.10;2.00;;;;;;;6.26;60.82;95019.59;5092394;28;20203;-84
2023/01/08 04:23:11;;;;;;;1.87;1.63;;;;;;;6.26;61.57;95015.28;5082909;28;20215;-84
2023/01/08 04:25:38;;;;;;;2.10;1.90;;;;;;;6.26;61.19;95014.47;5073883;28;20303;-84
2023/01/08 04:28:04;;;;;;;2.40;1.90;;;;;;;6.26;61.30;95012.72;5080802;28;20762;-84
2023/01/08 04:30:31;;;;;;;2.40;1.90;;;;;;;6.25;61.47;95000.91;5081731;28;20251;-84
2023/01/08 04:32:57;;;;;;;2.20;2.00;;;;;;;6.24;60.83;95002.66;5078093;28;20591;-84
2023/01/08 04:35:24;;;;;;;2.37;2.03;;;;;;;6.30;61.05;94996.09;5092936;28;20196;-84
2023/01/08 04:37:51;;;;;;;2.17;1.97;;;;;;;6.26;60.91;94994.03;5087040;28;20189;-84
2023/01/08 04:40:18;;;;;;;2.50;2.30;;;;;;;6.18;61.16;94990.53;5073162;28;20247;-84
2023/01/08 04:42:44;;;;;;;2.23;2.03;;;;;;;6.21;61.49;94987.66;5076917;28;20706;-84
2023/01/08 04:45:11;;;;;;;2.47;2.00;;;;;;;6.23;61.12;94987.50;5074039;28;20606;-84
2023/01/08 04:47:37;;;;;;;2.27;2.00;;;;;;;6.22;61.20;94984.13;5075642;28;20203;-83
2023/01/08 04:50:04;;;;;;;2.60;2.10;;;;;;;6.17;60.99;94981.25;5092523;28;20602;-84
2023/01/08 04:52:31;;;;;;;2.97;2.17;;;;;;;6.14;61.05;94968.84;5072939;28;20251;-84
2023/01/08 04:54:59;;;;;;;2.97;2.30;;;;;;;6.07;60.67;94969.66;5082921;28;20211;-84
2023/01/08 04:57:25;;;;;;;2.30;2.10;;;;;;;6.02;60.79;94971.88;5093305;28;20211;-84
2023/01/08 04:59:51;;;;;;;5.43;2.20;;;;;;;6.01;60.96;94972.84;5084285;28;20239;-84
2023/01/08 05:02:18;;;;;;;4.13;2.40;;;;;;;6.06;61.20;94973.16;5070607;28;20201;-84
2023/01/08 05:04:44;;;;;;;3.77;2.30;;;;;;;6.12;61.24;94969.97;5079408;28;20196;-83
2023/01/08 05:07:11;;;;;;;2.67;2.30;;;;;;;6.14;60.93;94973.16;5078640;28;20664;-84
2023/01/08 05:09:37;;;;;;;2.27;2.07;;;;;;;6.14;60.85;94984.19;5077643;28;20610;-84
2023/01/08 05:12:05;;;;;;;2.60;2.13;;;;;;;6.23;60.65;94982.38;5072414;28;20274;-84
2023/01/08 05:14:32;;;;;;;2.63;2.13;;;;;;;6.22;60.46;94979.03;5088632;28;20204;-84
2023/01/08 05:16:58;;;;;;;3.27;2.20;;;;;;;6.22;60.35;94973.91;5092390;28;20712;-84
2023/01/08 05:19:24;;;;;;;2.63;2.37;;;;;;;6.17;60.82;94980.47;5065723;28;20218;-84
2023/01/08 05:21:51;;;;;;;2.20;2.00;;;;;;;6.20;61.19;94972.47;5055722;28;20255;-84
2023/01/08 05:24:17;;;;;;;2.47;2.00;;;;;;;6.21;61.36;94967.19;5069702;28;20219;-84
2023/01/08 05:26:44;;;;;;;2.70;2.30;;;;;;;6.21;60.91;94962.09;5073849;28;20219;-84
2023/01/08 05:29:11;;;;;;;4.00;2.60;;;;;;;6.19;60.85;94964.00;5064282;28;20216;-84
2023/01/08 05:31:39;;;;;;;2.40;2.17;;;;;;;6.19;60.86;94955.53;5055766;28;20212;-84
2023/01/08 05:34:06;;;;;;;4.23;2.27;;;;;;;6.18;61.27;94959.06;5066799;28;20220;-84
2023/01/08 05:36:32;;;;;;;2.10;1.90;;;;;;;6.15;60.92;94956.84;5065461;28;20247;-84
2023/01/08 05:39:00;;;;;;;2.47;1.90;;;;;;;6.15;60.56;94955.09;5064697;28;20225;-84
2023/01/08 05:41:27;;;;;;;2.67;1.83;;;;;;;6.20;61.21;94954.59;5075479;28;20196;-84
2023/01/08 05:43:53;;;;;;;2.83;1.90;;;;;;;6.17;60.73;94965.13;5083251;28;20396;-84
2023/01/08 05:46:21;;;;;;;2.20;2.00;;;;;;;6.14;61.07;94961.19;5055056;28;20201;-84
2023/01/08 05:48:47;;;;;;;2.40;1.87;;;;;;;6.12;61.16;94963.09;5089925;28;20208;-84
2023/01/08 05:51:17;;;;;;;2.13;1.93;;;;;;;6.13;61.46;94956.22;5084867;28;20200;-83
2023/01/08 05:53:43;;;;;;;2.30;2.10;;;;;;;6.07;61.80;94954.31;5074343;28;20224;-84
2023/01/08 05:56:11;;;;;;;3.57;2.03;;;;;;;6.12;61.93;94957.19;5073399;28;20197;-84
2023/01/08 05:58:38;;;;;;;2.40;1.90;;;;;;;6.18;61.54;94959.84;5075234;28;20665;-84
2023/01/08 06:01:07;;;;;;;1.80;1.57;;;;;;;6.19;61.25;94966.56;5074832;28;20193;-84
2023/01/08 06:03:35;;;;;;;1.80;1.70;;;;;;;6.23;61.09;94965.28;5074947;28;20220;-84
2023/01/08 06:06:03;;;;;;;1.87;1.70;;;;;;;6.28;60.81;94969.09;5075412;28;20615;-84
2023/01/08 06:08:30;;;;;;;2.03;1.83;;;;;;;6.19;60.94;94974.22;5088537;28;20196;-84
2023/01/08 06:10:59;;;;;;;1.47;1.37;;;;;;;6.11;60.86;94981.16;5083121;28;20189;-84
2023/01/08 06:13:25;;;;;;;1.87;1.70;;;;;;;6.00;61.54;94973.81;5087540;28;20219;-84
2023/01/08 06:15:52;;;;;;;2.37;1.93;;;;;;;6.03;61.74;94965.81;5095662;28;20200;-83
2023/01/08 06:18:18;;;;;;;1.70;1.60;;;;;;;6.01;61.06;94960.88;5085141;28;20196;-84
2023/01/08 06:20:46;;;;;;;2.37;1.70;;;;;;;6.09;61.59;94975.41;5094721;28;20216;-84
2023/01/08 06:23:13;;;;;;;2.03;1.77;;;;;;;6.16;61.44;94977.09;5084291;28;20723;-84
2023/01/08 06:25:39;;;;;;;3.33;1.83;;;;;;;6.17;61.41;94967.69;5075140;28;20193;-84
2023/01/08 06:28:06;;;;;;;2.40;1.87;;;;;;;6.16;61.19;94959.22;5074785;28;20193;-84
2023/01/08 06:30:32;;;;;;;3.07;2.10;;;;;;;6.08;61.62;94969.47;5075501;28;20658;-84
2023/01/08 06:32:59;;;;;;;2.73;2.00;;;;;;;6.09;62.00;94970.28;5072712;28;20224;-84
2023/01/08 06:35:27;;;;;;;2.33;1.90;;;;;;;6.10;62.16;94966.78;5086611;28;20562;-84
2023/01/08 06:37:55;;;;;;;1.70;1.43;;;;;;;6.18;61.93;94962.41;5089262;28;20250;-84
2023/01/08 06:40:22;;;;;;;2.27;2.00;;;;;;;6.20;62.11;94960.50;5076572;28;20270;-84
2023/01/08 06:42:48;;;;;;;2.07;1.50;;;;;;;6.20;61.63;94963.03;5094570;28;20314;-84
2023/01/08 06:45:15;;;;;;;1.83;1.60;;;;;;;6.22;61.49;94968.00;5084065;28;20199;-84
2023/01/08 06:47:41;;;;;;;1.90;1.67;;;;;;;6.24;61.00;94968.63;5073373;28;20247;-84
2023/01/08 06:50:11;;;;;;;1.80;1.57;;;;;;;6.22;61.22;94962.88;5073227;28;20200;-84
2023/01/08 06:52:37;;;;;;;1.60;1.50;;;;;;;6.26;61.50;94984.59;5071221;28;20600;-84
2023/01/08 06:55:06;;;;;;;1.53;1.43;;;;;;;6.22;60.84;94983.34;5074161;28;20193;-84
2023/01/08 06:57:33;;;;;;;1.90;1.50;;;;;;;6.18;61.00;94984.63;5074138;28;20200;-84
2023/01/08 06:59:59;;;;;;;2.47;1.73;;;;;;;6.13;60.88;94992.00;5073149;28;20278;-84
2023/01/08 07:02:25;;;;;;;2.20;2.00;;;;;;;6.02;61.29;94984.66;5073019;28;21645;-84
2023/01/08 07:04:52;;;;;;;3.40;2.20;;;;;;;5.97;61.97;94979.22;5073903;28;20227;-84
2023/01/08 07:07:18;;;;;;;2.80;2.37;;;;;;;5.95;61.69;94989.66;5074325;28;20189;-84
2023/01/08 07:09:45;;;;;;;2.27;2.07;;;;;;;5.85;62.45;94977.00;5074223;28;20690;-85
2023/01/08 07:12:14;;;;;;;2.23;2.03;;;;;;;5.86;63.11;94983.72;5074178;28;20207;-85
2023/01/08 07:14:41;;;;;;;2.67;2.40;;;;;;;5.91;63.28;94987.56;5081346;28;20197;-84
2023/01/08 07:17:07;;;;;;;2.70;2.40;;;;;;;5.99;63.28;94990.88;5073200;28;20232;-84
2023/01/08 07:19:34;;;;;;;3.27;2.43;;;;;;;6.04;63.11;94990.41;5066920;28;20871;-84
2023/01/08 07:22:01;;;;;;;2.43;2.23;;;;;;;6.10;63.48;94989.75;5072438;28;20193;-84
2023/01/08 07:24:27;;;;;;;3.03;2.40;;;;;;;6.12;63.70;94995.50;5073005;28;20221;-84
2023/01/08 07:26:53;;;;;;;3.07;2.10;;;;;;;6.18;63.63;94990.53;5073246;28;20200;-84
2023/01/08 07:29:21;;;;;;;2.30;2.10;;;;;;;6.22;63.27;94979.03;5072140;28;20683;-84
2023/01/08 07:31:48;;;;;;;2.60;2.40;;;;;;;6.25;63.42;94977.91;5073219;28;20197;-84
2023/01/08 07:34:14;;;;;;;2.97;2.30;;;;;;;6.22;63.66;94980.78;5072853;28;20659;-84
2023/01/08 07:36:40;;;;;;;2.53;2.30;;;;;;;6.25;63.59;94972.78;5072946;28;20204;-84
2023/01/08 07:39:07;;;;;;;2.70;2.30;;;;;;;6.30;63.00;94969.75;5072556;28;20231;-84
2023/01/08 07:41:33;;;;;;;2.47;2.27;;;;;;;6.33;63.18;94974.53;5073358;28;20208;-84
2023/01/08 07:44:00;;;;;;;2.20;2.00;;;;;;;6.38;63.05;94967.94;5073562;28;20225;-84
2023/01/08 07:46:27;;;;;;;2.40;2.20;;;;;;;6.37;62.93;94974.00;5074302;28;20217;-84
2023/01/08 07:48:55;;;;;;;2.60;2.33;;;;;;;6.41;63.08;94965.06;5073581;28;20196;-84
2023/01/08 07:51:21;;;;;;;3.17;2.23;;;;;;;6.38;63.12;94972.25;5073971;28;20230;-84
2023/01/08 07:53:50;;;;;;;3.60;2.27;;;;;;;6.41;62.73;94971.94;5074230;28;20233;-84
2023/01/08 07:56:17;;;;;;;2.70;2.50;;;;;;;6.46;62.92;94967.91;5072854;28;20224;-84
2023/01/08 07:58:43;;;;;;;2.90;2.20;;;;;;;6.52;62.38;94974.94;5073616;28;20630;-84
2023/01/08 08:01:11;;;;;;;2.50;2.27;;;;;;;6.56;62.39;94978.72;5073919;28;20260;-84
2023/01/08 08:03:39;;;;;;;2.77;2.20;;;;;;;6.61;62.04;94969.75;5073054;28;20223;-84
2023/01/08 08:06:06;;;;;;;2.50;2.30;;;;;;;6.63;61.85;94960.97;5073518;28;20660;-84
2023/01/08 08:08:33;;;;;;;2.80;2.60;;;;;;;6.61;62.36;94964.66;5073085;28;20201;-84
2023/01/08 08:10:59;;;;;;;3.90;2.73;;;;;;;6.56;63.13;94971.06;5072377;28;20207;-84
2023/01/08 08:13:26;;;;;;;2.77;2.40;;;;;;;6.65;62.95;94973.59;5073821;28;20231;-84
2023/01/08 08:15:52;;;;;;;2.60;2.37;;;;;;;6.74;63.06;94968.25;5072598;28;20209;-84
2023/01/08 08:18:19;;;;;;;3.37;2.40;;;;;;;6.79;61.65;94970.31;5072262;28;20780;-84
2023/01/08 08:20:50;;;;;;;2.10;1.90;;;;;;;6.86;61.42;94984.84;5071984;28;20618;-84
2023/01/08 08:23:17;;;;;;;3.33;2.20;;;;;;;6.88;61.41;94989.78;5072871;28;20231;-84
2023/01/08 08:25:43;;;;;;;2.40;2.20;;;;;;;6.94;61.46;94991.66;5073604;28;20793;-84
2023/01/08 08:28:13;;;;;;;2.80;2.10;;;;;;;7.17;75.81;94992.47;5071819;28;20204;-85
2023/01/08 08:30:41;;;;;;;4.37;1.90;;;;;;;7.77;82.10;94978.91;5068923;28;20585;-85
2023/01/08 08:33:07;;;;;;;2.33;2.13;;;;;;;8.11;65.64;94978.41;5071498;28;20734;-84
2023/01/08 08:35:34;;;;;;;2.37;2.17;;;;;;;8.14;61.70;94972.13;5073234;28;20250;-84
2023/01/08 08:38:03;;;;;;;2.40;2.20;;;;;;;8.00;60.63;94965.22;5074101;28;20201;-82
2023/01/08 08:40:30;;;;;;;2.67;2.13;;;;;;;7.90;60.50;94968.84;5087284;28;20219;-82
2023/01/08 08:42:57;;;;;;;2.50;2.30;;;;;;;7.83;60.41;94967.97;5092872;28;20220;-84
2023/01/08 08:45:24;;;;;;;2.47;2.20;;;;;;;7.78;59.47;94974.56;5073890;28;20222;-84
2023/01/08 08:47:50;;;;;;;2.50;2.30;;;;;;;7.78;59.97;94972.81;5085412;28;20734;-84
2023/01/08 08:50:17;;;;;;;2.53;2.07;;;;;;;7.79;59.55;94976.97;5081544;28;20280;-84
2023/01/08 08:52:44;;;;;;;2.50;2.27;;;;;;;7.81;59.79;94980.16;5054905;28;20294;-84
2023/01/08 08:55:16;;;;;;;2.93;2.33;;;;;;;7.79;59.46;94974.41;5094034;28;21027;-84
2023/01/08 08:57:42;;;;;;;3.87;2.50;;;;;;;7.79;58.96;94969.28;5081999;28;20203;-84
2023/01/08 09:00:10;;;;;;;3.87;2.47;;;;;;;7.80;59.69;94965.75;5075658;28;20248;-84
2023/01/08 09:02:37;;;;;;;3.30;2.63;;;;;;;7.89;60.01;94966.44;5086989;28;20215;-84
2023/01/08 09:05:03;;;;;;;2.63;2.37;;;;;;;7.95;59.46;94969.13;5079615;28;20197;-84
2023/01/08 09:07:30;;;;;;;3.07;2.77;;;;;;;8.10;58.57;94973.44;5086503;28;20204;-84
2023/01/08 09:09:56;;;;;;;2.40;2.20;;;;;;;8.11;57.57;94975.03;5085185;28;20185;-84
2023/01/08 09:12:24;;;;;;;4.50;2.70;;;;;;;8.09;57.56;94972.66;5079574;28;20201;-84
2023/01/08 09:14:53;;;;;;;2.93;2.60;;;;;;;8.09;57.78;94980.34;5075505;28;20612;-84
2023/01/08 09:17:20;;;;;;;3.63;2.90;;;;;;;8.08;57.60;94986.44;5076469;28;20213;-84
2023/01/08 09:19:50;;;;;;;5.00;3.10;;;;;;;8.08;57.57;94986.44;5076515;28;20212;-84
2023/01/08 09:22:16;;;;;;;4.73;3.60;;;;;;;8.04;57.39;94995.47;5094465;28;20729;-84
2023/01/08 09:24:42;;;;;;;5.80;3.60;;;;;;;8.05;57.79;94991.16;5098023;28;20204;-84
2023/01/08 09:27:09;;;;;;;4.80;3.70;;;;;;;8.09;58.30;94989.81;5079462;28;20207;-84
2023/01/08 09:29:37;;;;;;;6.10;4.10;;;;;;;8.09;57.73;94987.25;5090415;28;20573;-85
2023/01/08 09:32:05;;;;;;;6.83;4.37;;;;;;;8.11;58.35;94990.41;5096106;28;20200;-84
2023/01/08 09:34:32;;;;;;;5.20;3.77;;;;;;;8.07;57.90;94996.91;5083558;28;20252;-84
2023/01/08 09:36:59;;;;;;;4.97;3.80;;;;;;;8.12;58.04;94989.47;5076753;28;20283;-85
2023/01/08 09:39:25;;;;;;;3.87;3.17;;;;;;;8.16;57.71;94996.63;5074282;28;20200;-85
2023/01/08 09:41:53;;;;;;;3.33;2.90;;;;;;;8.24;57.08;94994.00;5075250;28;20221;-86
2023/01/08 09:44:25;;;;;;;3.47;2.80;;;;;;;8.29;56.33;94993.44;5088710;28;20227;-86
2023/01/08 09:46:57;;;;;;;3.47;2.90;;;;;;;8.44;56.94;94990.94;5079236;28;20193;-86
2023/01/08 09:49:30;;;;;;;4.10;2.93;;;;;;;8.64;56.25;94986.84;5074426;28;20196;-86
2023/01/08 09:52:00;;;;;;;2.97;2.67;;;;;;;8.98;55.85;94968.28;5084899;28;20203;-86
2023/01/08 09:54:26;;;;;;;2.20;2.00;;;;;;;9.29;54.34;94961.06;5052133;28;20218;-88
2023/01/08 09:56:54;;;;;;;2.23;1.80;;;;;;;9.57;53.00;94952.63;5066191;28;20228;-86
2023/01/08 09:59:21;;;;;;;2.57;2.00;;;;;;;9.77;52.05;94943.28;5070847;28;20197;-86
2023/01/08 10:01:48;;;;;;;2.20;1.97;;;;;;;10.00;53.21;94932.75;5083404;28;20208;-86
2023/01/08 10:04:18;;;;;;;3.00;2.47;;;;;;;10.06;52.89;94937.13;5082907;28;20227;-88
2023/01/08 10:06:51;;;;;;;2.07;1.83;;;;;;;10.09;52.28;94936.75;5082677;28;20200;-87
2023/01/08 10:09:21;;;;;;;2.47;2.10;;;;;;;10.20;52.08;94930.34;5065136;28;20219;-86
2023/01/08 10:11:49;;;;;;;2.90;2.30;;;;;;;10.28;52.20;94935.31;5057765;28;20213;-85
2023/01/08 10:14:22;;;;;;;2.90;2.60;;;;;;;10.23;51.22;94942.78;5056426;28;20222;-85
2023/01/08 10:16:54;;;;;;;3.73;2.37;;;;;;;10.23;51.70;94935.88;5075981;28;20236;-85
2023/01/08 10:19:23;;;;;;;3.07;2.33;;;;;;;10.35;51.77;94938.72;5075025;28;20208;-85
2023/01/08 10:21:50;;;;;;;40.37;5.03;;;;;;;10.42;56.00;94946.44;5094357;28;20231;-83
2023/01/08 10:24:18;;;;;;;11.10;3.53;;;;;;;10.63;54.51;94951.50;5096866;28;20228;-85
2023/01/08 10:26:46;;;;;;;4.00;2.70;;;;;;;10.76;51.97;94935.31;5079775;28;20541;-85
2023/01/08 10:29:14;;;;;;;5.53;2.50;;;;;;;10.84;51.73;94932.56;5074278;28;20287;-85
2023/01/08 10:31:50;;;;;;;3.40;2.37;;;;;;;10.99;50.07;94938.34;5089678;28;20189;-85
2023/01/08 10:34:31;;;;;;;4.10;2.40;;;;;;;11.05;49.55;94935.78;5094707;28;20706;-85
2023/01/08 10:36:57;;;;;;;2.60;2.20;;;;;;;11.21;49.75;94918.38;5074029;28;20205;-84
2023/01/08 10:39:26;;;;;;;2.83;2.23;;;;;;;11.30;49.85;94919.78;5058300;28;20198;-85
2023/01/08 10:41:56;;;;;;;2.57;2.03;;;;;;;11.34;49.36;94926.94;5071498;28;20244;-85
2023/01/08 10:44:25;;;;;;;3.50;2.10;;;;;;;11.30;48.70;94914.63;5075283;28;20302;-85
2023/01/08 10:46:55;;;;;;;2.23;1.63;;;;;;;11.20;48.70;94909.84;5074372;28;20197;-85
2023/01/08 10:49:30;;;;;;;2.73;1.97;;;;;;;11.07;48.07;94912.41;5087970;28;20197;-85
2023/01/08 10:51:57;;;;;;;1.97;1.73;;;;;;;10.91;48.69;94925.66;5078686;28;20200;-85
2023/01/08 10:54:30;;;;;;;2.20;2.00;;;;;;;10.70;48.49;94922.22;5081350;28;20212;-85
2023/01/08 10:56:57;;;;;;;2.67;1.93;;;;;;;10.58;49.02;94923.75;5073489;28;20197;-85
2023/01/08 10:59:24;;;;;;;2.00;1.80;;;;;;;10.39;49.61;94917.53;5086794;28;20721;-85
2023/01/08 11:01:54;;;;;;;3.10;1.83;;;;;;;10.28;49.99;94920.66;5093854;28;20231;-85
2023/01/08 11:04:23;;;;;;;2.07;1.83;;;;;;;10.25;50.59;94922.81;5072536;28;20221;-85
2023/01/08 11:06:58;;;;;;;3.17;1.97;;;;;;;10.14;49.59;94925.91;5070016;28;20388;-85
2023/01/08 11:09:28;;;;;;;2.10;1.90;;;;;;;10.08;50.37;94916.38;5072556;28;20196;-85
2023/01/08 11:11:55;;;;;;;2.07;1.70;;;;;;;10.04;50.13;94913.38;5072637;28;20683;-85
2023/01/08 11:14:26;;;;;;;2.40;2.07;;;;;;;9.99;50.19;94911.38;5074698;28;20216;-85
2023/01/08 11:16:53;;;;;;;2.77;1.97;;;;;;;9.95;50.80;94915.31;5072507;28;20684;-85
2023/01/08 11:19:25;;;;;;;3.07;2.10;;;;;;;9.92;50.99;94917.47;5081854;28;20200;-85
2023/01/08 11:21:58;;;;;;;3.13;1.90;;;;;;;9.94;51.75;94913.72;5092724;28;20231;-85
2023/01/08 11:24:29;;;;;;;3.87;2.30;;;;;;;9.91;51.55;94895.31;5082528;28;20220;-85
2023/01/08 11:26:59;;;;;;;3.37;2.30;;;;;;;9.79;52.06;94861.63;5074024;28;20185;-85
2023/01/08 11:29:37;;;;;;;3.57;1.90;;;;;;;9.62;51.88;94850.06;5082514;28;20203;-85
2023/01/08 11:32:18;;;;;;;2.23;1.90;;;;;;;9.67;51.89;94847.69;5085153;28;20254;-85
2023/01/08 11:34:51;;;;;;;2.10;1.90;;;;;;;9.66;52.08;94856.38;5070590;28;20220;-85
2023/01/08 11:37:21;;;;;;;2.57;1.60;;;;;;;9.74;51.82;94858.81;5073527;28;20205;-84
2023/01/08 11:39:48;;;;;;;1.80;1.70;;;;;;;9.83;51.43;94849.97;5072569;28;20197;-85
2023/01/08 11:42:29;;;;;;;2.73;1.60;;;;;;;9.86;51.22;94848.78;5073698;28;20250;-85
2023/01/08 11:45:10;;;;;;;2.37;1.80;;;;;;;9.90;50.66;94850.81;5072150;28;20618;-85
2023/01/08 11:47:49;;;;;;;3.30;1.50;;;;;;;9.98;51.05;94842.16;5071930;28;20710;-85